Time;durP1;ratioP1;P1;durP2;ratioP2;P2;SDS_P1;SDS_P2;PMS_P1;PMS_P2;Temp;Humidity;BMP_temperature;BMP_pressure;BME280_temperature;BME280_humidity;BME280_pressure;Samples;Min_cycle;Max_cycle;Signal;HPM_P1;HPM_P2
2022/05/06 00:00:52;;;;;;;3.95;3.00;;;;;;;;;;7392034;19;20787;-79
2022/05/06 00:03:17;;;;;;;3.08;2.45;;;;;;;;;;7397774;19;20014;-79
2022/05/06 00:05:43;;;;;;;5.47;2.97;;;;;;;;;;7393455;19;20361;-77
2022/05/06 00:08:10;;;;;;;4.47;3.25;;;;;;;;;;7397923;19;20018;-78
2022/05/06 00:10:36;;;;;;;5.53;3.15;;;;;;;;;;7394915;19;20013;-78
2022/05/06 00:13:01;;;;;;;2.92;2.40;;;;;;;;;;7394938;19;20922;-78
2022/05/06 00:15:26;;;;;;;4.28;3.22;;;;;;;;;;7395926;19;20033;-78
2022/05/06 00:17:52;;;;;;;3.50;3.00;;;;;;;;;;7395167;19;20010;-79
2022/05/06 00:20:17;;;;;;;4.28;3.40;;;;;;;;;;7396371;19;20006;-78
2022/05/06 00:22:43;;;;;;;5.47;3.08;;;;;;;;;;7399151;19;20293;-80
2022/05/06 00:25:09;;;;;;;3.92;3.08;;;;;;;;;;7394721;19;20019;-79
2022/05/06 00:27:38;;;;;;;5.25;2.83;;;;;;;;;;7395486;19;20349;-79
2022/05/06 00:30:04;;;;;;;7.10;3.97;;;;;;;;;;7396333;19;19999;-79
2022/05/06 00:32:29;;;;;;;5.60;3.20;;;;;;;;;;7396421;19;20010;-79
2022/05/06 00:34:55;;;;;;;4.13;3.17;;;;;;;;;;7392841;19;20009;-79
2022/05/06 00:37:20;;;;;;;3.40;2.80;;;;;;;;;;7394960;19;20013;-79
2022/05/06 00:39:46;;;;;;;3.42;2.67;;;;;;;;;;7398326;19;20134;-79
2022/05/06 00:42:11;;;;;;;2.85;2.28;;;;;;;;;;7391071;19;20019;-80
2022/05/06 00:44:36;;;;;;;4.70;3.05;;;;;;;;;;7393875;19;20121;-78
2022/05/06 00:47:03;;;;;;;3.17;2.88;;;;;;;;;;7394297;19;20006;-78
2022/05/06 00:49:29;;;;;;;5.80;3.35;;;;;;;;;;7396224;19;20055;-79
2022/05/06 00:51:54;;;;;;;3.30;2.78;;;;;;;;;;7390939;19;20011;-80
2022/05/06 00:54:22;;;;;;;4.40;3.35;;;;;;;;;;7397222;19;20114;-79
2022/05/06 00:56:49;;;;;;;3.78;3.00;;;;;;;;;;7394341;19;20412;-80
2022/05/06 00:59:15;;;;;;;3.55;2.88;;;;;;;;;;7397858;19;19999;-79
2022/05/06 01:01:40;;;;;;;4.05;3.33;;;;;;;;;;7392101;19;20011;-79
2022/05/06 01:04:06;;;;;;;3.08;2.50;;;;;;;;;;7395586;19;19999;-79
2022/05/06 01:06:33;;;;;;;3.30;2.92;;;;;;;;;;7394075;19;20360;-79
2022/05/06 01:08:59;;;;;;;3.53;2.78;;;;;;;;;;7394698;19;20003;-79
2022/05/06 01:11:25;;;;;;;2.33;1.90;;;;;;;;;;7395034;19;20092;-80
2022/05/06 01:13:55;;;;;;;1.88;1.50;;;;;;;;;;7395036;19;20031;-79
2022/05/06 01:16:20;;;;;;;2.95;1.52;;;;;;;;;;7392136;19;20250;-79
2022/05/06 01:18:47;;;;;;;2.47;1.38;;;;;;;;;;7395115;19;20767;-79
2022/05/06 01:21:18;;;;;;;4.25;1.35;;;;;;;;;;7392186;19;19994;-79
2022/05/06 01:23:43;;;;;;;2.72;1.20;;;;;;;;;;7397420;19;20029;-79
2022/05/06 01:26:09;;;;;;;0.82;0.80;;;;;;;;;;7390727;19;20472;-79
2022/05/06 01:28:35;;;;;;;1.13;0.77;;;;;;;;;;7395938;19;20032;-79
2022/05/06 01:31:02;;;;;;;4.93;1.10;;;;;;;;;;7393365;19;20013;-78
2022/05/06 01:33:29;;;;;;;0.77;0.50;;;;;;;;;;7392484;19;20033;-79
2022/05/06 01:36:08;;;;;;;1.58;0.45;;;;;;;;;;7393004;19;20015;-80
2022/05/06 01:38:52;;;;;;;0.63;0.40;;;;;;;;;;7395310;19;20139;-79
2022/05/06 01:41:23;;;;;;;0.50;0.47;;;;;;;;;;7392884;19;20007;-79
2022/05/06 01:44:04;;;;;;;0.40;0.40;;;;;;;;;;7395263;19;20017;-79
2022/05/06 01:46:30;;;;;;;1.42;0.60;;;;;;;;;;7391444;19;20040;-79
2022/05/06 01:48:57;;;;;;;0.93;0.70;;;;;;;;;;7393053;19;20002;-79
2022/05/06 01:51:23;;;;;;;0.80;0.50;;;;;;;;;;7393051;19;20070;-79
2022/05/06 01:53:49;;;;;;;1.30;0.45;;;;;;;;;;7395483;19;20330;-79
2022/05/06 01:56:17;;;;;;;0.98;0.45;;;;;;;;;;7392145;19;20061;-79
2022/05/06 01:58:42;;;;;;;0.80;0.60;;;;;;;;;;7390754;19;20014;-79
2022/05/06 02:01:08;;;;;;;0.50;0.50;;;;;;;;;;7393518;19;20018;-80
2022/05/06 02:06:17;;;;;;;0.45;0.45;;;;;;;;;;7393470;19;20089;-79
2022/05/06 02:08:42;;;;;;;0.30;0.30;;;;;;;;;;7394147;19;20091;-79
2022/05/06 02:11:08;;;;;;;0.40;0.40;;;;;;;;;;7393796;19;20479;-79
2022/05/06 02:13:34;;;;;;;0.55;0.55;;;;;;;;;;7393050;19;20027;-79
2022/05/06 02:16:01;;;;;;;0.50;0.50;;;;;;;;;;7391946;19;19999;-79
2022/05/06 02:18:29;;;;;;;0.38;0.28;;;;;;;;;;7393458;19;20485;-79
2022/05/06 02:20:56;;;;;;;0.75;0.50;;;;;;;;;;7393745;19;19998;-80
2022/05/06 02:23:22;;;;;;;0.22;0.22;;;;;;;;;;7390712;19;20021;-79
2022/05/06 02:25:48;;;;;;;1.48;0.40;;;;;;;;;;7393485;19;20086;-80
2022/05/06 02:28:14;;;;;;;0.30;0.30;;;;;;;;;;7390338;19;20019;-80
2022/05/06 02:33:24;;;;;;;0.57;0.57;;;;;;;;;;7392405;19;20036;-79
2022/05/06 02:35:50;;;;;;;0.50;0.50;;;;;;;;;;7393740;19;20014;-79
2022/05/06 02:38:15;;;;;;;0.47;0.47;;;;;;;;;;7393132;19;20126;-79
2022/05/06 02:40:41;;;;;;;0.40;0.40;;;;;;;;;;7392602;19;20324;-79
2022/05/06 02:43:07;;;;;;;2.47;0.55;;;;;;;;;;7389535;19;20032;-79
2022/05/06 02:45:33;;;;;;;0.47;0.47;;;;;;;;;;7393326;19;20077;-79
2022/05/06 02:47:59;;;;;;;0.30;0.30;;;;;;;;;;7392264;19;20011;-79
2022/05/06 02:50:24;;;;;;;0.73;0.73;;;;;;;;;;7394003;19;20006;-79
2022/05/06 02:52:50;;;;;;;0.52;0.52;;;;;;;;;;7390362;19;20022;-80
2022/05/06 02:55:16;;;;;;;0.60;0.60;;;;;;;;;;7392898;19;20035;-79
2022/05/06 02:57:41;;;;;;;1.05;0.60;;;;;;;;;;7388829;19;20017;-79
2022/05/06 03:00:07;;;;;;;0.60;0.60;;;;;;;;;;7393550;19;20026;-80
2022/05/06 03:02:33;;;;;;;0.40;0.40;;;;;;;;;;7387826;19;20007;-79
2022/05/06 03:04:58;;;;;;;0.70;0.45;;;;;;;;;;7392492;19;20018;-80
2022/05/06 03:07:24;;;;;;;0.55;0.40;;;;;;;;;;7393300;19;20369;-79
2022/05/06 03:09:49;;;;;;;1.35;0.40;;;;;;;;;;7393192;19;20428;-79
2022/05/06 03:12:19;;;;;;;0.47;0.43;;;;;;;;;;7391435;19;20010;-80
2022/05/06 03:14:45;;;;;;;0.60;0.40;;;;;;;;;;7391008;19;20028;-79
2022/05/06 03:17:10;;;;;;;0.85;0.60;;;;;;;;;;7389141;19;20006;-79
2022/05/06 03:19:35;;;;;;;0.63;0.50;;;;;;;;;;7392206;19;20396;-79
2022/05/06 03:22:01;;;;;;;1.00;0.40;;;;;;;;;;7389124;19;19999;-79
2022/05/06 03:24:27;;;;;;;0.80;0.80;;;;;;;;;;7393029;19;20474;-79
2022/05/06 03:26:52;;;;;;;3.63;0.70;;;;;;;;;;7385789;19;20010;-80
2022/05/06 03:29:18;;;;;;;0.77;0.60;;;;;;;;;;7395110;19;20074;-80
2022/05/06 03:31:43;;;;;;;0.50;0.50;;;;;;;;;;7390438;19;20022;-79
2022/05/06 03:34:09;;;;;;;0.40;0.40;;;;;;;;;;7392638;19;20090;-79
2022/05/06 03:36:34;;;;;;;1.30;0.47;;;;;;;;;;7390841;19;20409;-79
2022/05/06 03:39:01;;;;;;;0.50;0.50;;;;;;;;;;7391669;19;20400;-80
2022/05/06 03:41:27;;;;;;;1.13;0.60;;;;;;;;;;7390061;19;20077;-79
2022/05/06 03:43:52;;;;;;;0.60;0.60;;;;;;;;;;7391184;19;20381;-79
2022/05/06 03:46:17;;;;;;;0.47;0.47;;;;;;;;;;7418852;19;19999;-80
2022/05/06 03:48:42;;;;;;;0.40;0.40;;;;;;;;;;7421045;19;20026;-80
2022/05/06 03:51:21;;;;;;;1.15;0.60;;;;;;;;;;7422620;19;20033;-80
2022/05/06 03:53:50;;;;;;;0.50;0.43;;;;;;;;;;7419309;19;20014;-80
2022/05/06 03:56:15;;;;;;;0.80;0.80;;;;;;;;;;7420538;19;20019;-80
2022/05/06 03:58:41;;;;;;;0.65;0.50;;;;;;;;;;7415685;19;20009;-79
2022/05/06 04:01:09;;;;;;;0.43;0.43;;;;;;;;;;7419202;19;20007;-79
2022/05/06 04:03:35;;;;;;;0.45;0.45;;;;;;;;;;7410339;19;20010;-79
2022/05/06 04:06:00;;;;;;;0.60;0.60;;;;;;;;;;7392243;19;20011;-80
2022/05/06 04:08:26;;;;;;;1.25;0.85;;;;;;;;;;7393862;19;20018;-79
2022/05/06 04:10:52;;;;;;;0.77;0.77;;;;;;;;;;7393471;19;20077;-80
2022/05/06 04:13:18;;;;;;;2.35;0.80;;;;;;;;;;7391822;19;20028;-80
2022/05/06 04:15:47;;;;;;;0.88;0.63;;;;;;;;;;7395951;19;20459;-79
2022/05/06 04:18:13;;;;;;;0.70;0.70;;;;;;;;;;7395300;19;20461;-79
2022/05/06 04:23:32;;;;;;;2.10;0.80;;;;;;;;;;7396234;19;20084;-81
2022/05/06 04:26:07;;;;;;;2.85;0.80;;;;;;;;;;7399270;19;20019;-79
2022/05/06 04:28:34;;;;;;;0.40;0.40;;;;;;;;;;7400695;19;20006;-78
2022/05/06 04:31:00;;;;;;;0.88;0.82;;;;;;;;;;7394862;19;19999;-79
2022/05/06 04:33:26;;;;;;;2.00;1.40;;;;;;;;;;7396486;19;20002;-79
2022/05/06 04:35:53;;;;;;;1.23;1.00;;;;;;;;;;7396296;19;20459;-78
2022/05/06 04:38:19;;;;;;;1.42;1.10;;;;;;;;;;7398515;19;20007;-79
2022/05/06 04:40:44;;;;;;;1.42;1.08;;;;;;;;;;7397207;19;20017;-79
2022/05/06 04:43:10;;;;;;;1.42;0.93;;;;;;;;;;7401885;19;20010;-79
2022/05/06 04:45:37;;;;;;;1.42;1.08;;;;;;;;;;7407561;19;20074;-80
2022/05/06 04:48:04;;;;;;;1.20;1.10;;;;;;;;;;7411884;19;20006;-80
2022/05/06 04:50:29;;;;;;;2.35;1.38;;;;;;;;;;7411601;19;20017;-79
2022/05/06 04:52:55;;;;;;;1.77;1.00;;;;;;;;;;7411918;19;20011;-79
2022/05/06 04:55:20;;;;;;;1.85;1.23;;;;;;;;;;7402663;19;20018;-79
2022/05/06 04:57:45;;;;;;;2.85;1.70;;;;;;;;;;7406260;19;20047;-79
2022/05/06 05:00:11;;;;;;;3.20;2.20;;;;;;;;;;7409499;19;20015;-79
2022/05/06 05:02:37;;;;;;;2.63;1.88;;;;;;;;;;7400611;19;19999;-79
2022/05/06 05:05:03;;;;;;;2.42;1.77;;;;;;;;;;7406040;19;20014;-79
2022/05/06 05:07:28;;;;;;;5.43;2.42;;;;;;;;;;7400504;19;21712;-78
2022/05/06 05:09:54;;;;;;;2.90;2.10;;;;;;;;;;7401459;19;20017;-79
2022/05/06 05:12:19;;;;;;;3.55;2.40;;;;;;;;;;7402846;19;20048;-79
2022/05/06 05:14:44;;;;;;;4.32;2.58;;;;;;;;;;7404430;19;20021;-78
2022/05/06 05:17:11;;;;;;;2.70;2.20;;;;;;;;;;7401770;19;20014;-79
2022/05/06 05:19:37;;;;;;;6.75;4.35;;;;;;;;;;7402611;19;20030;-78
2022/05/06 05:22:03;;;;;;;4.25;2.75;;;;;;;;;;7397638;19;20006;-79
2022/05/06 05:24:28;;;;;;;3.65;2.67;;;;;;;;;;7402368;19;20015;-79
2022/05/06 05:26:57;;;;;;;4.20;2.28;;;;;;;;;;7402658;19;20030;-79
2022/05/06 05:29:23;;;;;;;7.55;4.00;;;;;;;;;;7404084;19;20010;-77
2022/05/06 05:31:49;;;;;;;4.70;3.47;;;;;;;;;;7394869;19;20007;-80
2022/05/06 05:34:14;;;;;;;4.65;3.90;;;;;;;;;;7393303;19;20003;-78
2022/05/06 05:36:40;;;;;;;7.95;4.22;;;;;;;;;;7390757;19;20057;-78
2022/05/06 05:39:05;;;;;;;5.13;3.78;;;;;;;;;;7388728;19;20010;-77
2022/05/06 05:41:32;;;;;;;5.95;4.00;;;;;;;;;;7389123;19;20074;-78
2022/05/06 05:49:26;;;;;;;5.63;4.05;;;;;;;;;;7392565;19;20046;-78
2022/05/06 05:51:52;;;;;;;5.05;4.30;;;;;;;;;;7389541;19;20475;-77
2022/05/06 05:54:17;;;;;;;6.88;4.28;;;;;;;;;;7393038;19;20102;-77
2022/05/06 05:56:42;;;;;;;9.43;5.32;;;;;;;;;;7389079;19;20010;-77
2022/05/06 05:59:07;;;;;;;5.47;4.35;;;;;;;;;;7393507;19;20070;-77
2022/05/06 06:01:33;;;;;;;4.50;3.33;;;;;;;;;;7388857;19;20009;-77
2022/05/06 06:03:58;;;;;;;8.18;4.85;;;;;;;;;;7392614;19;20039;-77
2022/05/06 06:06:23;;;;;;;8.40;4.05;;;;;;;;;;7390971;19;20031;-77
2022/05/06 06:08:48;;;;;;;5.78;4.10;;;;;;;;;;7390430;19;20007;-77
2022/05/06 06:11:14;;;;;;;6.25;4.68;;;;;;;;;;7388591;19;20009;-78
2022/05/06 06:13:39;;;;;;;7.47;5.18;;;;;;;;;;7388742;19;20095;-77
2022/05/06 06:16:04;;;;;;;5.55;4.70;;;;;;;;;;7387198;19;20014;-77
2022/05/06 06:18:30;;;;;;;6.50;5.05;;;;;;;;;;7384944;19;20007;-77
2022/05/06 06:20:56;;;;;;;5.90;4.15;;;;;;;;;;7386749;19;20003;-76
2022/05/06 06:23:21;;;;;;;5.93;4.47;;;;;;;;;;7388200;19;20495;-77
2022/05/06 06:25:47;;;;;;;8.45;5.60;;;;;;;;;;7385789;19;20003;-77
2022/05/06 06:28:12;;;;;;;6.75;4.90;;;;;;;;;;7385167;19;20119;-77
2022/05/06 06:30:37;;;;;;;7.70;5.47;;;;;;;;;;7384264;19;20459;-77
2022/05/06 06:33:03;;;;;;;8.55;4.82;;;;;;;;;;7383058;19;20070;-77
2022/05/06 06:35:28;;;;;;;8.10;4.88;;;;;;;;;;7384985;19;20021;-77
2022/05/06 06:37:54;;;;;;;6.20;4.50;;;;;;;;;;7383460;19;20006;-77
2022/05/06 06:40:21;;;;;;;6.47;4.93;;;;;;;;;;7384693;19;20427;-77
2022/05/06 06:42:47;;;;;;;7.57;5.18;;;;;;;;;;7381016;19;20066;-77
2022/05/06 06:45:13;;;;;;;5.55;4.47;;;;;;;;;;7387864;19;20003;-77
2022/05/06 06:47:39;;;;;;;6.90;5.10;;;;;;;;;;7384387;19;20114;-77
2022/05/06 06:50:05;;;;;;;6.40;5.18;;;;;;;;;;7387796;19;20014;-77
2022/05/06 06:52:36;;;;;;;5.57;4.78;;;;;;;;;;7386581;19;20432;-79
2022/05/06 06:55:02;;;;;;;7.70;5.50;;;;;;;;;;7382516;19;20101;-77
2022/05/06 06:57:31;;;;;;;6.53;5.05;;;;;;;;;;7385269;19;20014;-77
2022/05/06 06:59:56;;;;;;;12.05;4.93;;;;;;;;;;7388030;19;20008;-77
2022/05/06 07:02:21;;;;;;;7.22;5.72;;;;;;;;;;7386111;19;20033;-77
2022/05/06 07:04:47;;;;;;;5.90;5.25;;;;;;;;;;7387550;19;20011;-78
2022/05/06 07:12:40;;;;;;;6.80;5.28;;;;;;;;;;7387862;19;20393;-77
2022/05/06 07:15:05;;;;;;;5.05;4.50;;;;;;;;;;7389844;19;20010;-78
2022/05/06 07:17:31;;;;;;;6.30;4.70;;;;;;;;;;7387878;19;20491;-78
2022/05/06 07:19:56;;;;;;;7.40;5.10;;;;;;;;;;7390417;19;20033;-77
2022/05/06 07:22:21;;;;;;;7.07;5.15;;;;;;;;;;7387663;19;20006;-77
2022/05/06 07:24:47;;;;;;;7.80;5.05;;;;;;;;;;7390043;19;20006;-78
2022/05/06 07:27:13;;;;;;;6.55;5.25;;;;;;;;;;7390431;19;20095;-78
2022/05/06 07:29:38;;;;;;;6.70;5.03;;;;;;;;;;7392874;19;20027;-78
2022/05/06 07:32:04;;;;;;;6.07;5.10;;;;;;;;;;7388215;19;20002;-78
2022/05/06 07:34:29;;;;;;;5.43;4.03;;;;;;;;;;7386277;19;20015;-78
2022/05/06 07:36:54;;;;;;;6.80;5.20;;;;;;;;;;7389268;19;20085;-77
2022/05/06 07:39:19;;;;;;;6.65;5.13;;;;;;;;;;7389494;19;20013;-78
2022/05/06 07:41:46;;;;;;;6.63;5.05;;;;;;;;;;7389671;19;20040;-77
2022/05/06 07:44:11;;;;;;;7.90;5.43;;;;;;;;;;7389930;19;20011;-78
2022/05/06 07:46:37;;;;;;;5.97;4.60;;;;;;;;;;7391221;19;20602;-77
2022/05/06 07:49:04;;;;;;;7.03;5.10;;;;;;;;;;7388789;19;20366;-78
2022/05/06 07:51:29;;;;;;;6.38;4.82;;;;;;;;;;7389583;19;20045;-78
2022/05/06 07:53:56;;;;;;;10.40;6.22;;;;;;;;;;7385206;19;20021;-77
2022/05/06 07:56:25;;;;;;;8.35;5.72;;;;;;;;;;7385342;19;20014;-77
2022/05/06 07:58:53;;;;;;;7.15;5.30;;;;;;;;;;7387715;19;20013;-77
2022/05/06 08:04:32;;;;;;;8.35;5.57;;;;;;;;;;7387342;19;20078;-77
2022/05/06 08:06:50;;;;;;;7.88;4.55;;;;;;;;;;7393174;19;20038;-77
2022/05/06 08:09:15;;;;;;;7.40;5.07;;;;;;;;;;7394480;19;20373;-77
2022/05/06 08:11:41;;;;;;;5.95;4.97;;;;;;;;;;7387337;19;19998;-77
2022/05/06 08:14:07;;;;;;;7.32;4.70;;;;;;;;;;7386866;19;20006;-76
2022/05/06 08:16:32;;;;;;;6.43;5.45;;;;;;;;;;7391964;19;20014;-77
2022/05/06 08:18:57;;;;;;;6.18;5.47;;;;;;;;;;7392251;19;20346;-77
2022/05/06 08:21:23;;;;;;;7.82;5.70;;;;;;;;;;7392620;19;20029;-77
2022/05/06 08:23:48;;;;;;;9.57;5.32;;;;;;;;;;7391529;19;20023;-77
2022/05/06 08:26:13;;;;;;;9.10;6.20;;;;;;;;;;7391190;19;20127;-76
2022/05/06 08:28:38;;;;;;;7.40;6.05;;;;;;;;;;7388925;19;20003;-77
2022/05/06 08:31:03;;;;;;;10.45;5.18;;;;;;;;;;7398553;19;20006;-77
2022/05/06 08:33:29;;;;;;;10.35;5.72;;;;;;;;;;7393361;19;20007;-77
2022/05/06 08:35:54;;;;;;;10.45;6.70;;;;;;;;;;7394086;19;20003;-77
2022/05/06 08:38:19;;;;;;;11.90;6.75;;;;;;;;;;7393320;19;20003;-77
2022/05/06 08:40:45;;;;;;;19.17;8.57;;;;;;;;;;7390549;19;20036;-77
2022/05/06 08:43:10;;;;;;;15.38;8.65;;;;;;;;;;7388824;19;20317;-76
2022/05/06 08:51:06;;;;;;;10.07;6.55;;;;;;;;;;7392339;19;20018;-77
2022/05/06 08:53:40;;;;;;;9.93;6.72;;;;;;;;;;7393210;19;20003;-77
2022/05/06 08:56:06;;;;;;;8.15;6.45;;;;;;;;;;7394246;19;20003;-76
2022/05/06 08:58:37;;;;;;;10.00;7.20;;;;;;;;;;7392531;19;20025;-77
2022/05/06 09:01:07;;;;;;;7.25;5.72;;;;;;;;;;7391889;19;20003;-77
2022/05/06 09:03:33;;;;;;;9.95;6.35;;;;;;;;;;7390717;19;20018;-77
2022/05/06 09:05:59;;;;;;;7.13;5.85;;;;;;;;;;7392723;19;20006;-76
2022/05/06 09:08:37;;;;;;;7.78;6.20;;;;;;;;;;7390674;19;20013;-76
2022/05/06 09:11:04;;;;;;;10.52;6.40;;;;;;;;;;7391020;19;20010;-77
2022/05/06 09:13:31;;;;;;;8.88;6.07;;;;;;;;;;7391222;19;20007;-76
2022/05/06 09:19:24;;;;;;;10.02;6.60;;;;;;;;;;7392327;19;21301;-76
2022/05/06 09:22:14;;;;;;;9.10;6.60;;;;;;;;;;7387901;19;20831;-76
2022/05/06 09:24:42;;;;;;;7.32;6.10;;;;;;;;;;7390341;19;20010;-76
2022/05/06 09:27:10;;;;;;;7.90;5.85;;;;;;;;;;7387410;19;20122;-78
2022/05/06 09:29:44;;;;;;;7.78;5.85;;;;;;;;;;7389581;19;20363;-76
2022/05/06 09:32:24;;;;;;;7.35;6.00;;;;;;;;;;7390391;19;20102;-77
2022/05/06 09:34:55;;;;;;;10.77;6.45;;;;;;;;;;7389993;19;20003;-76
2022/05/06 09:37:32;;;;;;;8.07;6.25;;;;;;;;;;7388773;19;20081;-76
2022/05/06 09:40:05;;;;;;;14.20;6.72;;;;;;;;;;7391204;19;20014;-77
2022/05/06 09:42:32;;;;;;;7.80;6.00;;;;;;;;;;7390058;19;20002;-77
2022/05/06 09:44:58;;;;;;;10.27;5.93;;;;;;;;;;7390341;19;19998;-77
2022/05/06 09:47:25;;;;;;;9.10;6.03;;;;;;;;;;7389968;19;20014;-77
2022/05/06 09:49:52;;;;;;;10.18;6.55;;;;;;;;;;7389142;19;20025;-77
2022/05/06 09:52:17;;;;;;;9.35;6.35;;;;;;;;;;7391997;19;20492;-76
2022/05/06 09:54:44;;;;;;;8.43;6.20;;;;;;;;;;7390029;19;20022;-76
2022/05/06 09:57:11;;;;;;;8.88;5.82;;;;;;;;;;7394771;19;20073;-76
2022/05/06 09:59:37;;;;;;;10.68;6.40;;;;;;;;;;7391626;19;20022;-76
2022/05/06 10:02:09;;;;;;;8.63;6.38;;;;;;;;;;7389253;19;20002;-77
2022/05/06 10:04:36;;;;;;;8.32;6.38;;;;;;;;;;7386707;19;20503;-77
2022/05/06 10:07:04;;;;;;;8.48;6.13;;;;;;;;;;7390042;19;20519;-78
2022/05/06 10:09:34;;;;;;;8.90;6.70;;;;;;;;;;7388977;19;20011;-76
2022/05/06 10:12:02;;;;;;;8.65;6.65;;;;;;;;;;7390426;19;20439;-77
2022/05/06 10:14:27;;;;;;;8.52;6.50;;;;;;;;;;7391814;19;20033;-76
2022/05/06 10:16:53;;;;;;;9.18;6.43;;;;;;;;;;7388477;19;20437;-76
2022/05/06 10:19:28;;;;;;;8.80;6.95;;;;;;;;;;7387944;19;20127;-76
2022/05/06 10:21:55;;;;;;;;;;;;;;;;;;7389083;19;20051;-76
2022/05/06 10:24:20;;;;;;;8.35;6.32;;;;;;;;;;7392759;19;19935;-77
2022/05/06 10:26:50;;;;;;;7.85;6.80;;;;;;;;;;7386601;19;20010;-77
2022/05/06 10:32:56;;;;;;;9.63;6.47;;;;;;;;;;7391737;19;20044;-77
2022/05/06 10:35:46;;;;;;;8.38;6.95;;;;;;;;;;7391358;19;20014;-77
2022/05/06 10:38:25;;;;;;;10.32;7.07;;;;;;;;;;7393559;19;20028;-76
2022/05/06 10:40:57;;;;;;;12.93;7.43;;;;;;;;;;7388748;19;20595;-76
2022/05/06 10:43:41;;;;;;;8.00;6.32;;;;;;;;;;7390113;19;20031;-77
2022/05/06 10:46:09;;;;;;;9.20;7.10;;;;;;;;;;7389836;19;20090;-77
2022/05/06 10:48:35;;;;;;;9.18;5.90;;;;;;;;;;7393805;19;20009;-77
2022/05/06 10:51:29;;;;;;;8.15;6.47;;;;;;;;;;7386467;19;20183;-76
2022/05/06 10:53:54;;;;;;;7.65;6.18;;;;;;;;;;7390363;19;20002;-77
2022/05/06 10:56:20;;;;;;;8.15;6.32;;;;;;;;;;7392566;19;20018;-77
2022/05/06 10:58:45;;;;;;;7.25;5.88;;;;;;;;;;7417739;19;20003;-75
2022/05/06 11:01:17;;;;;;;7.93;5.53;;;;;;;;;;7420080;19;20019;-76
2022/05/06 11:03:54;;;;;;;8.80;5.72;;;;;;;;;;7422167;19;20053;-76
2022/05/06 11:06:23;;;;;;;8.90;5.85;;;;;;;;;;7407714;19;20343;-76
2022/05/06 11:08:49;;;;;;;6.95;5.68;;;;;;;;;;7392790;19;19998;-77
2022/05/06 11:11:19;;;;;;;7.93;5.75;;;;;;;;;;7388515;19;20496;-77
2022/05/06 11:13:47;;;;;;;8.15;6.38;;;;;;;;;;7391314;19;20134;-77
2022/05/06 11:16:14;;;;;;;6.03;5.15;;;;;;;;;;7389614;19;20107;-77
2022/05/06 11:18:43;;;;;;;9.90;5.65;;;;;;;;;;7389275;19;20010;-77
2022/05/06 11:21:22;;;;;;;9.18;7.22;;;;;;;;;;7387454;19;20017;-76
2022/05/06 11:23:48;;;;;;;7.55;5.32;;;;;;;;;;7386802;19;20022;-77
2022/05/06 11:26:23;;;;;;;7.57;5.85;;;;;;;;;;7387926;19;20002;-77
2022/05/06 11:29:04;;;;;;;6.32;5.57;;;;;;;;;;7388742;19;20019;-76
2022/05/06 11:31:29;;;;;;;10.70;6.10;;;;;;;;;;7388897;19;20022;-76
2022/05/06 11:34:03;;;;;;;11.77;6.55;;;;;;;;;;7387396;19;20037;-77
2022/05/06 11:36:29;;;;;;;7.90;5.60;;;;;;;;;;7391433;19;20014;-77
2022/05/06 11:38:54;;;;;;;6.78;5.25;;;;;;;;;;7395719;19;20011;-77
2022/05/06 11:41:20;;;;;;;7.43;5.57;;;;;;;;;;7395137;19;20011;-78
2022/05/06 11:43:46;;;;;;;7.90;5.32;;;;;;;;;;7395339;19;20035;-76
2022/05/06 11:49:04;;;;;;;8.07;5.05;;;;;;;;;;7398629;19;20543;-77
2022/05/06 11:51:34;;;;;;;10.02;5.65;;;;;;;;;;7397315;19;20498;-77
2022/05/06 11:54:00;;;;;;;7.82;5.13;;;;;;;;;;7394278;19;20158;-77
2022/05/06 11:56:27;;;;;;;5.25;4.63;;;;;;;;;;7395082;19;20428;-76
2022/05/06 11:58:56;;;;;;;7.90;4.78;;;;;;;;;;7394939;19;20014;-76
2022/05/06 12:01:32;;;;;;;8.02;4.55;;;;;;;;;;7392327;19;20002;-77
2022/05/06 12:04:11;;;;;;;5.88;4.75;;;;;;;;;;7390938;19;20642;-76
2022/05/06 12:06:38;;;;;;;8.90;4.97;;;;;;;;;;7401505;19;20015;-76
2022/05/06 12:09:14;;;;;;;6.65;4.38;;;;;;;;;;7401986;19;20440;-75
2022/05/06 12:11:41;;;;;;;7.10;4.53;;;;;;;;;;7393061;19;20623;-76
2022/05/06 12:14:08;;;;;;;8.02;4.72;;;;;;;;;;7403464;19;20216;-76
2022/05/06 12:16:34;;;;;;;5.75;4.60;;;;;;;;;;7399283;19;20080;-76
2022/05/06 12:18:59;;;;;;;6.18;4.28;;;;;;;;;;7398018;19;20014;-76
2022/05/06 12:21:26;;;;;;;7.53;4.40;;;;;;;;;;7394339;19;20015;-75
2022/05/06 12:24:00;;;;;;;6.38;4.18;;;;;;;;;;7395493;19;20030;-75
2022/05/06 12:26:35;;;;;;;7.55;4.28;;;;;;;;;;7395412;19;20022;-76
2022/05/06 12:29:03;;;;;;;6.22;4.55;;;;;;;;;;7394227;19;20010;-76
2022/05/06 12:31:32;;;;;;;6.97;4.60;;;;;;;;;;7388012;19;20010;-76
2022/05/06 12:34:07;;;;;;;8.05;4.55;;;;;;;;;;7389951;19;20007;-77
2022/05/06 12:36:32;;;;;;;;;;;;;;;;;;7394530;19;20042;-77
2022/05/06 12:38:58;;;;;;;6.30;4.22;;;;;;;;;;7392501;19;19914;-76
2022/05/06 12:41:27;;;;;;;6.78;4.70;;;;;;;;;;7392475;19;20003;-75
2022/05/06 12:43:57;;;;;;;6.82;4.85;;;;;;;;;;7395854;19;20066;-76
2022/05/06 12:46:27;;;;;;;6.43;4.78;;;;;;;;;;7390213;19;20015;-77
2022/05/06 12:51:40;;;;;;;8.00;4.35;;;;;;;;;;7396563;19;20101;-77
2022/05/06 12:54:06;;;;;;;6.50;4.47;;;;;;;;;;7393368;19;20018;-77
2022/05/06 12:56:32;;;;;;;6.30;4.47;;;;;;;;;;7391936;19;20006;-75
2022/05/06 12:58:58;;;;;;;5.68;4.40;;;;;;;;;;7394281;19;20017;-75
2022/05/06 13:01:23;;;;;;;6.32;4.50;;;;;;;;;;7392294;19;20608;-75
2022/05/06 13:03:49;;;;;;;6.28;4.32;;;;;;;;;;7393185;19;20032;-76
2022/05/06 13:06:15;;;;;;;8.68;4.85;;;;;;;;;;7392517;19;20011;-76
2022/05/06 13:08:40;;;;;;;5.80;4.38;;;;;;;;;;7393372;19;20026;-75
2022/05/06 13:11:05;;;;;;;4.95;4.07;;;;;;;;;;7395839;19;20014;-75
2022/05/06 13:13:30;;;;;;;11.40;5.78;;;;;;;;;;7393701;19;20002;-75
2022/05/06 13:15:56;;;;;;;5.97;5.00;;;;;;;;;;7395245;19;20022;-75
2022/05/06 13:18:21;;;;;;;7.53;4.97;;;;;;;;;;7392515;19;20002;-76
2022/05/06 13:20:47;;;;;;;6.15;4.72;;;;;;;;;;7406503;19;20168;-76
2022/05/06 13:23:12;;;;;;;7.13;5.65;;;;;;;;;;7393671;19;20515;-75
2022/05/06 13:25:37;;;;;;;7.03;4.75;;;;;;;;;;7392895;19;20014;-76
2022/05/06 13:28:03;;;;;;;6.68;4.80;;;;;;;;;;7393636;19;20016;-77
2022/05/06 13:30:28;;;;;;;7.80;5.80;;;;;;;;;;7391102;19;20070;-73
2022/05/06 13:32:53;;;;;;;6.68;4.90;;;;;;;;;;7394003;19;20025;-77
2022/05/06 13:35:19;;;;;;;7.70;5.75;;;;;;;;;;7394898;19;20013;-76
2022/05/06 13:37:44;;;;;;;7.90;5.15;;;;;;;;;;7389440;19;20010;-78
2022/05/06 13:40:10;;;;;;;8.25;5.45;;;;;;;;;;7388985;19;20018;-76
2022/05/06 13:42:35;;;;;;;6.68;5.07;;;;;;;;;;7392070;19;20027;-76
2022/05/06 13:45:00;;;;;;;8.65;5.30;;;;;;;;;;7393403;19;20018;-76
2022/05/06 13:47:25;;;;;;;6.53;5.30;;;;;;;;;;7392140;19;20006;-76
2022/05/06 13:49:51;;;;;;;5.82;4.47;;;;;;;;;;7393225;19;20027;-77
2022/05/06 13:52:16;;;;;;;7.70;5.55;;;;;;;;;;7392064;19;20026;-76
2022/05/06 13:54:41;;;;;;;6.93;5.28;;;;;;;;;;7394391;19;20006;-77
2022/05/06 13:59:50;;;;;;;7.97;4.90;;;;;;;;;;7392471;19;20427;-77
2022/05/06 14:02:16;;;;;;;8.32;5.20;;;;;;;;;;7391299;19;19998;-78
2022/05/06 14:04:41;;;;;;;6.30;5.20;;;;;;;;;;7393449;19;20380;-77
2022/05/06 14:07:06;;;;;;;5.38;4.55;;;;;;;;;;7391698;19;20027;-75
2022/05/06 14:09:33;;;;;;;5.88;5.10;;;;;;;;;;7391028;19;20013;-76
2022/05/06 14:11:59;;;;;;;5.80;4.43;;;;;;;;;;7393623;19;20013;-76
2022/05/06 14:14:24;;;;;;;5.63;4.78;;;;;;;;;;7390860;19;20010;-76
2022/05/06 14:16:50;;;;;;;6.03;5.28;;;;;;;;;;7391459;19;20027;-76
2022/05/06 14:19:15;;;;;;;7.25;5.65;;;;;;;;;;7391211;19;20034;-75
2022/05/06 14:21:49;;;;;;;8.80;5.75;;;;;;;;;;7426341;19;20412;-79
2022/05/06 14:24:14;;;;;;;8.20;4.93;;;;;;;;;;7425528;19;20007;-76
2022/05/06 14:26:39;;;;;;;8.55;5.47;;;;;;;;;;7422148;19;20006;-76
2022/05/06 14:29:05;;;;;;;6.40;5.20;;;;;;;;;;7421796;19;20454;-76
2022/05/06 14:31:30;;;;;;;6.57;5.00;;;;;;;;;;7421966;19;20042;-75
2022/05/06 14:33:56;;;;;;;7.75;4.65;;;;;;;;;;7422025;19;20499;-76
2022/05/06 14:36:22;;;;;;;8.02;5.22;;;;;;;;;;7422993;19;20043;-76
2022/05/06 14:38:48;;;;;;;8.00;5.18;;;;;;;;;;7426570;19;19998;-75
2022/05/06 14:41:13;;;;;;;8.63;5.25;;;;;;;;;;7421926;19;20046;-76
2022/05/06 14:43:39;;;;;;;5.90;4.95;;;;;;;;;;7423870;19;20660;-76
2022/05/06 14:46:04;;;;;;;8.10;5.78;;;;;;;;;;7422745;19;20018;-76
2022/05/06 14:48:29;;;;;;;7.50;5.28;;;;;;;;;;7425331;19;20485;-76
2022/05/06 14:50:55;;;;;;;7.45;6.07;;;;;;;;;;7425800;19;20013;-76
2022/05/06 14:53:21;;;;;;;6.05;4.90;;;;;;;;;;7424410;19;20051;-75
2022/05/06 14:55:46;;;;;;;8.70;5.32;;;;;;;;;;7424690;19;20006;-76
2022/05/06 14:58:11;;;;;;;7.15;5.50;;;;;;;;;;7417254;19;20463;-77
2022/05/06 15:00:38;;;;;;;7.60;5.18;;;;;;;;;;7415414;19;20114;-76
2022/05/06 15:03:03;;;;;;;5.90;5.15;;;;;;;;;;7410559;19;20029;-76
2022/05/06 15:05:28;;;;;;;7.32;5.60;;;;;;;;;;7420149;19;20094;-76
2022/05/06 15:07:54;;;;;;;14.77;5.72;;;;;;;;;;7421030;19;20010;-76
2022/05/06 15:10:19;;;;;;;8.25;5.40;;;;;;;;;;7424180;19;20009;-77
2022/05/06 15:12:44;;;;;;;7.22;5.07;;;;;;;;;;7422933;19;20007;-76
2022/05/06 15:15:11;;;;;;;6.28;5.00;;;;;;;;;;7420300;19;20061;-76
2022/05/06 15:17:36;;;;;;;6.47;5.32;;;;;;;;;;7420510;19;20014;-76
2022/05/06 15:20:02;;;;;;;7.00;4.75;;;;;;;;;;7422776;19;20006;-77
2022/05/06 15:22:28;;;;;;;7.93;5.85;;;;;;;;;;7424101;19;19999;-76
2022/05/06 15:24:53;;;;;;;8.82;5.50;;;;;;;;;;7420736;19;20455;-77